Time;durP1;ratioP1;P1;durP2;ratioP2;P2;SDS_P1;SDS_P2;PMS_P1;PMS_P2;Temp;Humidity;BMP_temperature;BMP_pressure;BME280_temperature;BME280_humidity;BME280_pressure;Samples;Min_cycle;Max_cycle;Signal;HPM_P1;HPM_P2
2022/11/13 00:01:21;;;;;;;8.38;5.47;;;;;;;18.96;46.25;102595.47;4993575;28;20276;-73
2022/11/13 00:03:47;;;;;;;7.45;5.38;;;;;;;18.96;45.99;102602.53;4994388;28;20117;-70
2022/11/13 00:06:14;;;;;;;7.07;5.18;;;;;;;18.89;45.98;102588.81;4994196;28;20046;-71
2022/11/13 00:08:39;;;;;;;7.35;5.30;;;;;;;18.88;45.93;102589.75;4993452;28;20034;-71
2022/11/13 00:11:07;;;;;;;8.60;6.00;;;;;;;18.88;45.92;102589.75;4992630;28;20030;-72
2022/11/13 00:13:33;;;;;;;8.27;5.90;;;;;;;18.87;45.94;102592.47;4994147;28;20120;-73
2022/11/13 00:16:05;;;;;;;7.60;5.18;;;;;;;18.84;46.19;102582.94;4993631;28;20038;-72
2022/11/13 00:18:32;;;;;;;7.57;5.15;;;;;;;18.82;45.87;102583.00;4993275;28;20061;-71
2022/11/13 00:21:07;;;;;;;8.30;5.88;;;;;;;18.83;46.10;102581.19;4993073;28;20046;-73
2022/11/13 00:23:34;;;;;;;8.50;5.60;;;;;;;18.78;45.85;102573.53;4993389;28;20042;-71
2022/11/13 00:26:29;;;;;;;7.53;5.50;;;;;;;18.81;45.93;102578.66;4992182;28;20041;-72
2022/11/13 00:28:57;;;;;;;6.72;4.65;;;;;;;18.77;46.16;102574.50;4992930;28;20041;-72
2022/11/13 00:31:23;;;;;;;7.78;5.15;;;;;;;18.75;45.97;102570.22;4992737;28;20351;-71
2022/11/13 00:33:48;;;;;;;6.65;5.07;;;;;;;18.73;45.81;102574.75;4992600;28;20084;-76
2022/11/13 00:36:17;;;;;;;7.13;5.20;;;;;;;18.74;46.02;102573.78;4992067;28;20101;-72
2022/11/13 00:38:42;;;;;;;7.18;4.80;;;;;;;18.72;46.05;102565.97;4992448;28;20141;-71
2022/11/13 00:41:08;;;;;;;7.05;4.53;;;;;;;18.72;45.75;102560.69;4991925;28;20114;-74
2022/11/13 00:43:33;;;;;;;7.38;4.90;;;;;;;18.65;45.79;102554.91;4992145;28;20030;-73
2022/11/13 00:45:58;;;;;;;6.07;4.68;;;;;;;18.64;46.40;102549.69;4990769;28;20034;-72
2022/11/13 00:48:24;;;;;;;6.40;4.70;;;;;;;18.66;45.89;102564.53;4993181;28;20041;-71
2022/11/13 00:50:50;;;;;;;7.82;5.35;;;;;;;18.62;45.57;102549.78;4992405;28;21246;-71
2022/11/13 00:53:15;;;;;;;6.53;4.63;;;;;;;18.61;45.73;102544.59;4992603;28;20128;-71
2022/11/13 00:55:42;;;;;;;7.82;5.00;;;;;;;18.62;45.81;102551.59;4993070;28;20066;-73
2022/11/13 00:58:08;;;;;;;6.47;4.88;;;;;;;18.59;45.50;102549.97;4992559;28;20525;-71
2022/11/13 01:00:33;;;;;;;6.43;4.53;;;;;;;18.57;45.57;102543.09;4992075;28;20034;-73
2022/11/13 01:02:59;;;;;;;6.28;4.78;;;;;;;18.56;45.69;102536.09;4992316;28;20033;-72
2022/11/13 01:05:25;;;;;;;6.32;4.47;;;;;;;18.53;45.46;102528.34;4991654;28;20048;-71
2022/11/13 01:07:50;;;;;;;6.82;4.80;;;;;;;18.54;45.76;102544.09;4991612;28;20034;-70
2022/11/13 01:10:16;;;;;;;7.20;4.55;;;;;;;18.51;45.57;102535.50;4992505;28;20406;-71
2022/11/13 01:12:42;;;;;;;5.88;4.28;;;;;;;18.54;45.85;102543.25;4999108;28;20120;-71
2022/11/13 01:15:08;;;;;;;7.07;5.03;;;;;;;18.52;45.81;102537.19;4991936;28;20030;-72
2022/11/13 01:17:33;;;;;;;7.13;4.72;;;;;;;18.46;45.46;102533.13;4992663;28;20412;-71
2022/11/13 01:19:58;;;;;;;7.40;4.93;;;;;;;18.48;45.92;102540.03;4991748;28;20129;-71
2022/11/13 01:22:23;;;;;;;6.00;4.20;;;;;;;18.48;45.46;102539.16;4991971;28;20065;-74
2022/11/13 01:24:49;;;;;;;7.03;4.30;;;;;;;18.45;45.59;102528.75;4992157;28;20589;-72
2022/11/13 01:27:14;;;;;;;9.25;4.30;;;;;;;18.44;45.58;102535.84;4991630;28;20121;-72
2022/11/13 01:29:41;;;;;;;6.93;4.53;;;;;;;18.41;45.60;102532.53;4992229;28;20180;-69
2022/11/13 01:32:06;;;;;;;6.53;4.55;;;;;;;18.44;45.50;102542.91;4991338;28;20510;-72
2022/11/13 01:34:31;;;;;;;8.00;4.65;;;;;;;18.43;45.55;102535.94;4991008;28;20042;-72
2022/11/13 01:36:56;;;;;;;6.95;4.85;;;;;;;18.36;45.25;102519.59;4991309;28;20038;-71
2022/11/13 01:39:22;;;;;;;6.47;4.40;;;;;;;18.42;45.34;102534.22;4992195;28;20037;-71
2022/11/13 01:41:47;;;;;;;7.95;4.32;;;;;;;18.40;45.42;102538.72;4991269;28;20313;-71
2022/11/13 01:44:14;;;;;;;7.18;4.55;;;;;;;18.40;45.32;102536.94;4992235;28;20038;-72
2022/11/13 01:46:46;;;;;;;5.85;4.18;;;;;;;18.37;45.31;102531.00;4990938;28;20033;-71
2022/11/13 01:49:16;;;;;;;6.25;4.88;;;;;;;18.38;45.51;102535.34;4990558;28;20493;-72
2022/11/13 01:51:51;;;;;;;6.57;4.35;;;;;;;18.37;45.43;102523.91;4991580;28;20045;-71
2022/11/13 01:54:25;;;;;;;5.55;4.00;;;;;;;18.36;45.32;102524.88;4991836;28;20049;-73
2022/11/13 01:56:51;;;;;;;6.80;4.32;;;;;;;18.33;45.27;102513.63;4991690;28;20034;-71
2022/11/13 01:59:21;;;;;;;7.18;4.40;;;;;;;18.30;45.36;102510.22;4992008;28;20116;-71
2022/11/13 02:01:47;;;;;;;6.18;4.47;;;;;;;18.30;45.20;102504.94;4991623;28;20034;-71
2022/11/13 02:04:12;;;;;;;6.05;4.10;;;;;;;18.30;45.06;102496.16;4992087;28;20034;-72
2022/11/13 02:06:55;;;;;;;5.97;4.13;;;;;;;18.30;45.28;102501.44;4990970;28;20092;-72
2022/11/13 02:09:25;;;;;;;6.28;4.13;;;;;;;18.29;45.24;102495.34;4991690;28;20393;-71
2022/11/13 02:11:51;;;;;;;5.70;4.20;;;;;;;18.26;45.13;102497.28;4990040;28;20030;-73
2022/11/13 02:14:18;;;;;;;6.00;4.10;;;;;;;18.29;45.11;102490.06;4991489;28;20042;-72
2022/11/13 02:16:46;;;;;;;6.00;4.20;;;;;;;18.30;45.01;102491.72;4991353;28;20042;-73
2022/11/13 02:19:18;;;;;;;6.30;4.13;;;;;;;18.26;45.08;102479.66;4991724;28;20772;-72
2022/11/13 02:21:54;;;;;;;6.05;4.05;;;;;;;18.24;45.17;102467.47;4991949;28;20034;-70
2022/11/13 02:24:28;;;;;;;5.43;3.72;;;;;;;18.33;44.85;102479.31;4991141;28;20062;-69
2022/11/13 02:26:57;;;;;;;5.40;3.85;;;;;;;18.33;44.81;102477.53;4991880;28;20034;-72
2022/11/13 02:29:22;;;;;;;5.13;3.40;;;;;;;18.33;44.92;102476.69;4991024;28;20050;-74
2022/11/13 02:31:47;;;;;;;5.38;3.78;;;;;;;18.35;45.13;102482.72;4991082;28;20521;-71
2022/11/13 02:34:13;;;;;;;5.30;3.57;;;;;;;18.33;44.82;102474.03;4991343;28;20041;-74
2022/11/13 02:36:38;;;;;;;5.55;3.70;;;;;;;18.29;44.87;102466.28;4991543;28;20288;-72
2022/11/13 02:39:09;;;;;;;5.60;3.90;;;;;;;18.32;44.70;102475.81;4991385;28;20069;-69
2022/11/13 02:41:37;;;;;;;5.57;3.75;;;;;;;18.31;44.71;102471.50;4991254;28;20073;-70
2022/11/13 02:44:03;;;;;;;5.60;3.97;;;;;;;18.18;44.64;102447.56;4991164;28;20038;-74
2022/11/13 02:46:28;;;;;;;6.32;4.00;;;;;;;18.30;44.80;102460.06;4991344;28;20089;-73
2022/11/13 02:48:53;;;;;;;6.20;4.35;;;;;;;18.25;44.46;102459.47;4991589;28;20596;-71
2022/11/13 02:51:19;;;;;;;5.72;3.70;;;;;;;18.26;44.92;102460.31;4990880;28;20029;-73
2022/11/13 02:53:44;;;;;;;5.63;3.75;;;;;;;18.24;44.71;102452.50;4991347;28;20485;-71
2022/11/13 02:56:09;;;;;;;5.63;4.00;;;;;;;18.26;44.78;102455.03;4991690;28;20046;-74
2022/11/13 02:58:34;;;;;;;7.23;4.33;;;;;;;18.25;44.65;102458.63;4991113;28;20034;-71
2022/11/13 03:01:02;;;;;;;6.40;4.30;;;;;;;18.19;44.57;102444.00;4991787;28;20255;-72
2022/11/13 03:03:27;;;;;;;8.20;4.00;;;;;;;18.20;44.81;102450.97;4991385;28;20283;-71
2022/11/13 03:05:53;;;;;;;5.93;4.13;;;;;;;18.21;44.60;102451.81;4991469;28;20504;-75
2022/11/13 03:08:18;;;;;;;6.72;4.13;;;;;;;18.21;44.46;102450.03;4991940;28;20026;-71
2022/11/13 03:10:44;;;;;;;6.32;4.20;;;;;;;18.21;44.51;102454.47;4994701;28;20070;-71
2022/11/13 03:13:09;;;;;;;5.93;4.00;;;;;;;18.19;44.38;102444.00;4994465;28;20038;-71
2022/11/13 03:15:34;;;;;;;6.72;4.60;;;;;;;18.17;44.39;102439.75;4995150;28;20120;-72
2022/11/13 03:18:04;;;;;;;6.45;3.92;;;;;;;18.15;44.61;102431.06;4993829;28;20034;-69
2022/11/13 03:20:30;;;;;;;6.03;4.32;;;;;;;18.18;44.35;102433.53;4994622;28;20038;-70
2022/11/13 03:22:55;;;;;;;5.78;4.00;;;;;;;18.13;44.63;102429.38;4994820;28;20037;-70
2022/11/13 03:25:21;;;;;;;6.32;4.13;;;;;;;18.17;44.55;102434.47;5001076;28;20038;-75
2022/11/13 03:27:46;;;;;;;5.60;3.95;;;;;;;18.15;44.39;102431.06;4994552;28;20059;-74
2022/11/13 03:30:11;;;;;;;5.82;4.35;;;;;;;18.11;44.90;102428.59;4994334;28;20577;-72
2022/11/13 03:32:37;;;;;;;5.93;3.90;;;;;;;18.15;44.71;102428.41;4994138;28;20545;-71
2022/11/13 03:35:02;;;;;;;6.03;3.85;;;;;;;18.14;44.66;102430.22;4993795;28;20053;-72
2022/11/13 03:37:27;;;;;;;5.68;3.80;;;;;;;18.07;44.46;102416.50;4994200;28;20112;-74
2022/11/13 03:39:53;;;;;;;5.90;3.78;;;;;;;18.12;44.35;102424.19;4994434;28;20173;-71
2022/11/13 03:42:18;;;;;;;5.50;3.83;;;;;;;18.09;44.59;102419.91;4993920;28;20030;-71
2022/11/13 03:44:44;;;;;;;5.78;3.70;;;;;;;18.11;44.83;102423.31;4994021;28;20388;-73
2022/11/13 03:47:09;;;;;;;6.13;3.80;;;;;;;18.11;44.70;102415.38;4994286;28;20077;-72
2022/11/13 03:49:34;;;;;;;6.37;3.70;;;;;;;18.12;44.93;102411.81;4993846;28;20287;-72
2022/11/13 03:51:59;;;;;;;5.80;4.00;;;;;;;18.07;44.94;102400.69;4994421;28;20260;-71
2022/11/13 03:54:25;;;;;;;6.47;3.93;;;;;;;18.13;44.81;102412.66;4993620;28;20259;-72
2022/11/13 03:56:50;;;;;;;5.70;3.70;;;;;;;18.09;44.98;102404.09;4994182;28;20617;-72
2022/11/13 03:59:15;;;;;;;5.47;3.65;;;;;;;18.14;44.70;102401.19;4993679;28;20329;-71
2022/11/13 04:01:40;;;;;;;5.20;3.70;;;;;;;18.11;44.69;102396.09;4993695;28;20487;-71
2022/11/13 04:04:06;;;;;;;5.47;3.70;;;;;;;18.15;44.74;102397.63;4993704;28;20045;-70
2022/11/13 04:06:31;;;;;;;5.22;3.08;;;;;;;18.16;44.43;102398.47;4993858;28;20345;-73
2022/11/13 04:08:56;;;;;;;5.65;3.70;;;;;;;18.13;44.44;102387.16;4993616;28;20034;-71
2022/11/13 04:11:21;;;;;;;5.50;3.25;;;;;;;18.12;44.68;102385.44;4993534;28;20038;-70
2022/11/13 04:13:47;;;;;;;5.93;3.60;;;;;;;18.15;44.64;102391.47;4993375;28;20545;-72
2022/11/13 04:16:12;;;;;;;5.43;3.43;;;;;;;18.12;44.49;102385.44;4993632;28;20279;-71
2022/11/13 04:18:37;;;;;;;5.28;3.00;;;;;;;18.13;44.62;102381.88;4993653;28;20351;-71
2022/11/13 04:21:04;;;;;;;5.17;3.67;;;;;;;18.13;44.75;102373.09;4993124;28;20030;-70
2022/11/13 04:23:30;;;;;;;5.65;3.50;;;;;;;18.17;44.79;102386.97;4992919;28;20282;-72
2022/11/13 04:25:55;;;;;;;5.72;3.22;;;;;;;18.18;44.85;102378.94;4992711;28;20030;-74
2022/11/13 04:28:21;;;;;;;5.88;3.53;;;;;;;18.14;44.48;102374.81;4993256;28;20046;-71
2022/11/13 04:30:46;;;;;;;6.50;3.28;;;;;;;18.17;44.95;102377.25;4999769;28;20040;-73
2022/11/13 04:33:12;;;;;;;6.15;3.13;;;;;;;18.13;44.76;102366.03;4993795;28;20042;-71
2022/11/13 04:35:37;;;;;;;5.53;3.72;;;;;;;18.14;44.21;102366.88;4993116;28;20349;-72
2022/11/13 04:38:03;;;;;;;5.78;3.38;;;;;;;18.15;44.41;102365.09;4992593;28;20037;-72
2022/11/13 04:40:28;;;;;;;4.88;2.97;;;;;;;18.15;44.49;102368.59;4993352;28;20038;-71
2022/11/13 04:42:53;;;;;;;4.90;3.20;;;;;;;18.11;44.55;102356.50;4993536;28;20470;-71
2022/11/13 04:45:22;;;;;;;7.43;3.27;;;;;;;18.17;44.59;102363.22;4992401;28;20030;-70
2022/11/13 04:47:47;;;;;;;5.47;3.20;;;;;;;18.17;44.45;102360.59;4993111;28;20388;-71
2022/11/13 04:50:14;;;;;;;5.00;3.10;;;;;;;18.11;44.63;102351.22;4993124;28;20133;-73
2022/11/13 04:52:39;;;;;;;5.13;3.15;;;;;;;18.13;44.10;102355.50;4992055;28;20475;-72
2022/11/13 04:55:05;;;;;;;4.93;3.00;;;;;;;18.01;44.37;102344.75;4992963;28;20058;-74
2022/11/13 04:57:31;;;;;;;4.80;2.97;;;;;;;18.12;44.37;102366.13;4999481;28;20033;-71
2022/11/13 04:59:56;;;;;;;5.75;3.60;;;;;;;18.14;44.15;102366.88;4992592;28;20058;-74
2022/11/13 05:02:22;;;;;;;5.03;3.20;;;;;;;18.10;44.21;102355.66;4992322;28;20607;-71
2022/11/13 05:04:47;;;;;;;5.38;3.25;;;;;;;18.13;44.10;102366.03;4991763;28;20034;-71
2022/11/13 05:07:12;;;;;;;5.55;3.38;;;;;;;18.09;44.23;102359.22;4992123;28;20030;-71
2022/11/13 05:09:38;;;;;;;4.93;3.03;;;;;;;18.08;43.96;102368.06;4992387;28;20225;-72
2022/11/13 05:12:06;;;;;;;5.72;3.40;;;;;;;18.11;43.94;102367.06;4992090;28;20266;-71
2022/11/13 05:14:35;;;;;;;5.03;3.20;;;;;;;18.06;44.14;102358.56;4992127;28;20394;-71
2022/11/13 05:17:00;;;;;;;5.45;3.33;;;;;;;18.10;44.09;102362.72;4991994;28;20038;-72
2022/11/13 05:19:26;;;;;;;4.65;2.97;;;;;;;18.06;43.83;102362.03;4992923;28;20588;-71
2022/11/13 05:21:51;;;;;;;5.80;3.60;;;;;;;18.04;43.90;102357.78;4991915;28;20045;-71
2022/11/13 05:24:16;;;;;;;4.72;3.28;;;;;;;18.05;44.31;102357.69;4992198;28;20331;-74
2022/11/13 05:26:41;;;;;;;4.57;3.07;;;;;;;18.03;44.08;102358.72;4991891;28;20034;-71
2022/11/13 05:29:07;;;;;;;5.72;3.28;;;;;;;18.00;44.00;102346.56;4992051;28;20256;-71
2022/11/13 05:31:32;;;;;;;4.93;3.33;;;;;;;18.00;43.96;102348.34;4991026;28;20044;-74
2022/11/13 05:33:57;;;;;;;6.30;3.80;;;;;;;17.99;43.73;102339.59;4992789;28;20454;-72
2022/11/13 05:36:23;;;;;;;5.40;3.30;;;;;;;18.03;44.18;102341.09;4991860;28;20133;-72
2022/11/13 05:38:48;;;;;;;4.63;3.10;;;;;;;17.99;44.20;102325.53;4991898;28;20272;-72
2022/11/13 05:41:20;;;;;;;5.05;3.30;;;;;;;18.04;44.04;102344.59;4991479;28;20065;-71
2022/11/13 05:43:46;;;;;;;4.85;3.17;;;;;;;18.00;43.87;102336.00;4992152;28;20034;-71
2022/11/13 05:46:20;;;;;;;5.13;3.50;;;;;;;18.03;43.83;102353.47;4991654;28;20044;-70
2022/11/13 05:48:46;;;;;;;6.38;3.30;;;;;;;17.97;43.77;102338.81;4992012;28;20026;-71
2022/11/13 05:51:18;;;;;;;5.32;3.35;;;;;;;17.98;43.76;102353.72;4991356;28;20046;-72
2022/11/13 05:53:44;;;;;;;5.68;3.38;;;;;;;17.99;43.81;102351.91;4991986;28;20125;-73
2022/11/13 05:56:11;;;;;;;6.85;3.78;;;;;;;17.93;43.99;102340.78;4992323;28;20435;-72
2022/11/13 05:58:36;;;;;;;6.47;4.53;;;;;;;17.92;43.82;102344.34;4993049;28;20372;-72
2022/11/13 06:01:07;;;;;;;6.18;4.00;;;;;;;17.96;43.39;102352.97;4991845;28;20052;-71
2022/11/13 06:03:33;;;;;;;5.40;3.78;;;;;;;17.92;43.51;102344.34;4991531;28;20117;-72
2022/11/13 06:05:59;;;;;;;5.72;3.42;;;;;;;17.90;43.40;102340.97;4991705;28;20124;-73
2022/11/13 06:08:24;;;;;;;5.22;3.72;;;;;;;17.93;43.68;102345.22;4992481;28;20033;-74
2022/11/13 06:10:50;;;;;;;5.30;3.40;;;;;;;17.93;43.40;102343.44;4991872;28;20041;-70
2022/11/13 06:13:15;;;;;;;6.35;4.00;;;;;;;17.97;43.67;102335.34;4998370;28;20030;-72
2022/11/13 06:15:41;;;;;;;5.90;3.85;;;;;;;17.97;44.23;102330.91;4991841;28;20543;-71
2022/11/13 06:18:06;;;;;;;5.00;3.45;;;;;;;18.01;44.31;102326.28;4991650;28;20436;-72
2022/11/13 06:20:35;;;;;;;6.07;3.80;;;;;;;18.02;44.28;102325.38;4991663;28;20138;-72
2022/11/13 06:23:01;;;;;;;5.40;3.28;;;;;;;18.08;44.34;102328.50;4991090;28;20037;-72
2022/11/13 06:25:27;;;;;;;4.70;2.92;;;;;;;18.12;44.61;102316.00;4991278;28;20037;-71
2022/11/13 06:27:53;;;;;;;5.50;3.30;;;;;;;18.11;44.75;102312.50;4991873;28;20045;-74
2022/11/13 06:30:18;;;;;;;5.57;3.17;;;;;;;18.18;44.80;102317.41;5006892;28;20548;-74
2022/11/13 06:32:44;;;;;;;5.88;3.10;;;;;;;18.20;44.70;102315.53;4991685;28;20034;-71
2022/11/13 06:35:09;;;;;;;5.25;3.10;;;;;;;18.26;44.53;102316.03;5006190;28;20030;-71
2022/11/13 06:37:34;;;;;;;6.00;3.35;;;;;;;18.27;44.54;102306.31;4991323;28;20038;-71
2022/11/13 06:39:59;;;;;;;4.97;2.90;;;;;;;18.30;44.68;102306.16;4991325;28;20386;-75
2022/11/13 06:42:26;;;;;;;5.30;3.20;;;;;;;18.39;44.63;102310.03;4990355;28;20842;-73
2022/11/13 06:44:51;;;;;;;5.32;3.00;;;;;;;18.39;44.40;102296.81;4994427;28;20268;-71
2022/11/13 06:47:16;;;;;;;4.40;2.78;;;;;;;18.42;44.42;102302.78;4995055;28;20099;-72
2022/11/13 06:49:41;;;;;;;5.00;3.17;;;;;;;18.45;44.45;102305.25;4994813;28;20038;-73
2022/11/13 06:52:07;;;;;;;5.07;2.90;;;;;;;18.45;44.20;102302.59;4994383;28;20124;-72
2022/11/13 06:54:32;;;;;;;5.47;3.23;;;;;;;18.46;44.46;102299.00;4994791;28;20264;-72
2022/11/13 06:56:57;;;;;;;4.90;3.30;;;;;;;18.52;44.42;102310.13;4995310;28;20267;-74
2022/11/13 06:59:22;;;;;;;5.70;2.97;;;;;;;18.48;44.27;102296.28;4994407;28;20831;-71
2022/11/13 07:01:49;;;;;;;5.03;3.20;;;;;;;18.42;44.18;102288.72;4994324;28;20263;-71
2022/11/13 07:04:15;;;;;;;4.80;2.97;;;;;;;18.52;44.49;102299.56;4994738;28;20307;-73
2022/11/13 07:06:40;;;;;;;5.65;3.38;;;;;;;18.55;44.26;102307.31;4994760;28;20119;-71
2022/11/13 07:09:05;;;;;;;5.43;3.43;;;;;;;18.57;44.07;102305.44;4994476;28;20695;-73
2022/11/13 07:11:30;;;;;;;4.83;3.00;;;;;;;18.58;44.01;102308.00;4994415;28;20335;-74
2022/11/13 07:13:56;;;;;;;5.40;3.00;;;;;;;18.60;44.01;102305.28;4995042;28;20264;-72
2022/11/13 07:16:21;;;;;;;5.22;3.30;;;;;;;18.59;44.17;102299.13;4994224;28;20636;-71
2022/11/13 07:18:51;;;;;;;5.15;3.15;;;;;;;18.58;44.08;102297.44;4994332;28;20033;-72
2022/11/13 07:21:17;;;;;;;5.00;2.88;;;;;;;18.60;44.15;102300.81;4994704;28;21336;-70
2022/11/13 07:23:42;;;;;;;4.85;3.20;;;;;;;18.62;44.34;102304.22;4993840;28;20042;-73
2022/11/13 07:26:10;;;;;;;5.28;3.08;;;;;;;18.65;43.99;102311.13;4994026;28;20037;-71
2022/11/13 07:28:36;;;;;;;5.63;3.08;;;;;;;18.65;43.98;102300.56;4994927;28;20045;-72
2022/11/13 07:31:02;;;;;;;4.60;2.85;;;;;;;18.61;43.90;102289.34;4994223;28;20034;-72
2022/11/13 07:33:27;;;;;;;5.18;3.05;;;;;;;18.62;43.88;102288.38;4994142;28;20488;-71
2022/11/13 07:35:54;;;;;;;5.07;3.15;;;;;;;18.62;43.86;102290.19;4993631;28;20041;-73
2022/11/13 07:38:19;;;;;;;6.00;3.70;;;;;;;18.61;44.06;102291.97;4994013;28;20034;-73
2022/11/13 07:40:44;;;;;;;4.83;2.97;;;;;;;18.65;43.93;102298.75;4994533;28;20034;-72
2022/11/13 07:43:10;;;;;;;4.93;3.38;;;;;;;18.63;43.78;102294.53;4993393;28;20275;-72
2022/11/13 07:45:35;;;;;;;4.95;3.15;;;;;;;18.63;43.70;102289.25;4993977;28;20038;-73
2022/11/13 07:48:01;;;;;;;5.13;3.28;;;;;;;18.62;43.74;102288.38;4993992;28;20840;-71
2022/11/13 07:50:28;;;;;;;5.20;3.30;;;;;;;18.66;43.63;102287.25;4993800;28;20389;-72
2022/11/13 07:52:56;;;;;;;6.05;3.50;;;;;;;18.63;43.65;102289.25;4993594;28;20449;-71
2022/11/13 07:55:21;;;;;;;5.57;3.38;;;;;;;18.65;43.40;102288.19;4992859;28;20191;-72
2022/11/13 07:57:46;;;;;;;5.38;3.28;;;;;;;18.64;43.76;102289.16;4993059;28;20117;-70
2022/11/13 08:00:12;;;;;;;5.90;3.50;;;;;;;18.63;43.54;102284.81;4994115;28;20372;-71
2022/11/13 08:02:37;;;;;;;4.85;3.10;;;;;;;18.63;43.57;102286.59;4993839;28;20038;-72
2022/11/13 08:05:03;;;;;;;6.00;3.43;;;;;;;18.60;42.64;102281.50;4993658;28;20851;-71
2022/11/13 08:07:28;;;;;;;5.93;3.58;;;;;;;18.64;42.59;102288.28;4993310;28;20264;-71
2022/11/13 08:09:53;;;;;;;5.00;3.45;;;;;;;18.63;42.76;102292.72;4993107;28;20633;-72
2022/11/13 08:12:19;;;;;;;7.20;3.40;;;;;;;18.62;42.70;102282.25;4993896;28;20077;-72
2022/11/13 08:14:44;;;;;;;4.73;3.23;;;;;;;18.67;43.15;102286.31;4993088;28;20252;-72
2022/11/13 08:17:09;;;;;;;5.93;3.43;;;;;;;18.66;43.13;102283.78;4993063;28;20085;-71
2022/11/13 08:19:34;;;;;;;5.05;3.53;;;;;;;18.70;43.19;102277.34;4993497;28;20290;-71
2022/11/13 08:22:00;;;;;;;6.15;3.30;;;;;;;18.67;43.16;102270.47;4993263;28;20040;-69
2022/11/13 08:24:25;;;;;;;5.27;3.40;;;;;;;18.69;43.42;102275.63;4992747;28;20387;-70
2022/11/13 08:26:50;;;;;;;5.93;3.30;;;;;;;18.73;43.57;102285.09;4992823;28;20267;-69
2022/11/13 08:29:15;;;;;;;6.50;3.77;;;;;;;18.70;42.37;102282.63;4992921;28;21028;-70
2022/11/13 08:31:41;;;;;;;5.03;3.33;;;;;;;18.66;43.56;102270.56;4993070;28;20323;-70
2022/11/13 08:34:06;;;;;;;5.28;3.55;;;;;;;18.67;43.76;102275.75;4992882;28;20885;-73
2022/11/13 08:36:31;;;;;;;6.83;3.43;;;;;;;18.70;43.55;102279.16;4992721;28;20037;-71
2022/11/13 08:38:56;;;;;;;6.57;4.07;;;;;;;18.71;43.78;102270.25;4993022;28;20833;-69
2022/11/13 08:41:22;;;;;;;5.43;3.40;;;;;;;18.72;43.91;102262.25;4999822;28;20052;-72
2022/11/13 08:43:47;;;;;;;5.90;3.83;;;;;;;18.75;44.23;102262.06;4992149;28;20483;-70
2022/11/13 08:46:12;;;;;;;7.03;3.07;;;;;;;18.81;44.37;102266.13;4992843;28;20274;-70
2022/11/13 08:48:37;;;;;;;4.90;3.00;;;;;;;18.83;44.50;102262.47;4992707;28;20252;-69
2022/11/13 08:51:03;;;;;;;5.97;3.65;;;;;;;18.87;44.54;102268.44;4992957;28;20038;-70
2022/11/13 08:53:28;;;;;;;5.57;3.05;;;;;;;18.87;44.61;102264.91;4992375;28;20357;-71
2022/11/13 08:55:53;;;;;;;6.28;3.50;;;;;;;18.87;44.47;102257.00;4992201;28;20449;-70
2022/11/13 08:58:19;;;;;;;5.47;3.22;;;;;;;18.91;44.51;102266.44;4999405;28;20037;-71
2022/11/13 09:00:44;;;;;;;5.80;3.03;;;;;;;18.92;44.73;102263.69;4992629;28;20034;-71
2022/11/13 09:03:11;;;;;;;7.45;3.53;;;;;;;18.94;45.40;102259.16;4992533;28;20633;-71
2022/11/13 09:05:37;;;;;;;6.72;3.42;;;;;;;18.98;45.85;102257.19;4992091;28;20050;-71
2022/11/13 09:08:03;;;;;;;6.50;3.80;;;;;;;18.99;46.25;102259.75;4991692;28;20042;-72
2022/11/13 09:10:28;;;;;;;8.32;3.78;;;;;;;19.07;46.22;102263.69;4992058;28;20038;-73
2022/11/13 09:12:58;;;;;;;7.80;3.58;;;;;;;19.09;46.43;102264.44;4992292;28;20041;-71
2022/11/13 09:15:24;;;;;;;6.55;3.75;;;;;;;19.06;46.39;102254.91;4992166;28;20037;-74
2022/11/13 09:17:49;;;;;;;7.93;3.80;;;;;;;19.11;46.36;102252.81;4992233;28;20026;-74
2022/11/13 09:20:15;;;;;;;7.78;3.72;;;;;;;19.13;46.15;102252.72;4991950;28;20048;-70
2022/11/13 09:22:40;;;;;;;7.28;3.78;;;;;;;19.11;46.19;102241.41;4991769;28;20104;-72
2022/11/13 09:25:06;;;;;;;7.25;3.38;;;;;;;19.11;46.25;102249.34;4992488;28;20030;-70
2022/11/13 09:27:31;;;;;;;7.97;3.67;;;;;;;19.12;46.26;102235.16;4992462;28;20850;-73
2022/11/13 09:29:56;;;;;;;7.80;3.90;;;;;;;19.14;46.53;102233.31;4992593;28;20032;-72
2022/11/13 09:32:22;;;;;;;6.50;3.37;;;;;;;19.15;46.72;102237.63;4991737;28;20490;-71
2022/11/13 09:34:47;;;;;;;6.70;3.25;;;;;;;19.14;46.39;102238.59;4991918;28;20263;-72
2022/11/13 09:37:14;;;;;;;5.82;3.67;;;;;;;19.16;46.27;102247.25;4991911;28;20053;-70
2022/11/13 09:39:39;;;;;;;6.60;3.35;;;;;;;19.16;46.35;102237.53;4990451;28;20131;-74
2022/11/13 09:42:17;;;;;;;6.20;3.50;;;;;;;19.13;46.47;102244.81;4990794;28;20921;-78
2022/11/13 09:44:51;;;;;;;8.88;3.45;;;;;;;19.09;46.67;102245.94;4991447;28;20268;-77
2022/11/13 09:47:24;;;;;;;7.03;3.60;;;;;;;19.12;46.23;102235.16;4991725;28;20038;-77
2022/11/13 09:49:59;;;;;;;6.73;4.03;;;;;;;19.15;45.86;102235.84;4991633;28;20040;-76
2022/11/13 09:52:31;;;;;;;7.07;3.60;;;;;;;19.21;46.04;102247.81;4990783;28;20034;-76
2022/11/13 09:54:57;;;;;;;6.97;3.63;;;;;;;19.26;46.08;102236.94;4991061;28;20053;-80
2022/11/13 09:57:41;;;;;;;6.32;3.45;;;;;;;19.30;45.97;102234.00;4991004;28;20141;-77
2022/11/13 10:00:13;;;;;;;8.77;3.30;;;;;;;19.37;45.83;102250.31;4998133;28;20533;-71
2022/11/13 10:03:17;;;;;;;7.70;3.35;;;;;;;19.37;45.49;102231.81;4991234;28;20809;-75
2022/11/13 10:06:20;;;;;;;7.15;3.60;;;;;;;19.46;45.36;102235.66;4991445;28;20038;-70
2022/11/13 10:09:03;;;;;;;5.70;3.10;;;;;;;19.40;45.38;102227.16;4990280;28;20038;-72
2022/11/13 10:11:48;;;;;;;5.50;3.28;;;;;;;19.40;45.11;102232.44;4990907;28;20046;-72
2022/11/13 10:14:22;;;;;;;6.78;3.20;;;;;;;19.46;44.75;102233.84;4991009;28;20033;-76
2022/11/13 10:16:56;;;;;;;6.88;3.33;;;;;;;19.50;45.08;102234.50;4990721;28;20041;-74
2022/11/13 10:19:53;;;;;;;7.57;3.30;;;;;;;19.52;44.79;102238.75;4994466;28;20033;-73
2022/11/13 10:22:35;;;;;;;5.88;3.10;;;;;;;19.54;44.73;102231.56;4993873;28;20073;-71
2022/11/13 10:25:10;;;;;;;6.80;2.90;;;;;;;19.55;45.09;102227.97;4994898;28;20068;-71
2022/11/13 10:27:36;;;;;;;5.55;3.13;;;;;;;19.51;44.92;102225.63;4994043;28;20383;-81
2022/11/13 10:30:03;;;;;;;5.32;2.88;;;;;;;19.52;44.88;102216.75;4994402;28;20030;-72
2022/11/13 10:32:31;;;;;;;5.95;3.17;;;;;;;19.59;44.98;102220.69;4994510;28;20030;-73
2022/11/13 10:35:11;;;;;;;7.05;3.20;;;;;;;19.59;44.68;102210.09;4994275;28;20081;-72
2022/11/13 10:38:05;;;;;;;5.20;3.28;;;;;;;19.64;44.68;102213.28;4995270;28;20084;-76
2022/11/13 10:40:34;;;;;;;5.53;2.75;;;;;;;19.62;44.80;102196.69;4994219;28;20129;-71
2022/11/13 10:43:15;;;;;;;5.05;3.15;;;;;;;19.65;44.87;102203.56;4994975;28;20066;-70
2022/11/13 10:45:42;;;;;;;6.07;3.47;;;;;;;19.63;44.55;102200.16;4994916;28;20038;-75
2022/11/13 10:48:25;;;;;;;5.05;2.97;;;;;;;19.62;44.69;102196.69;4994339;28;20029;-72
2022/11/13 10:51:01;;;;;;;5.68;3.00;;;;;;;19.63;44.64;102190.44;4994316;28;20049;-69
2022/11/13 10:53:36;;;;;;;5.72;3.17;;;;;;;19.60;44.77;102179.19;4994306;28;20041;-73
2022/11/13 10:56:11;;;;;;;5.43;2.90;;;;;;;19.65;44.65;102179.78;4994662;28;20046;-76
2022/11/13 10:58:36;;;;;;;6.68;2.70;;;;;;;19.65;44.53;102177.97;4994267;28;20347;-77
2022/11/13 11:01:13;;;;;;;5.05;3.05;;;;;;;19.67;44.62;102178.69;4994159;28;20089;-77
2022/11/13 11:03:48;;;;;;;6.28;2.90;;;;;;;19.66;44.61;102168.22;4994304;28;20025;-75
2022/11/13 11:06:14;;;;;;;6.90;2.78;;;;;;;19.68;44.82;102161.06;4993222;28;20441;-74
2022/11/13 11:08:39;;;;;;;5.15;2.95;;;;;;;19.63;44.55;102149.91;4994255;28;20034;-73
2022/11/13 11:14:26;;;;;;;5.60;2.90;;;;;;;19.59;44.53;102159.84;4993274;28;20036;-79
2022/11/13 11:16:52;;;;;;;5.65;2.80;;;;;;;19.60;44.42;102155.41;4993121;28;20137;-76
2022/11/13 11:19:23;;;;;;;4.40;2.90;;;;;;;19.60;44.56;102156.28;4993731;28;20486;-77
2022/11/13 11:21:57;;;;;;;5.35;2.90;;;;;;;19.64;44.31;102165.69;4993153;28;20058;-79
2022/11/13 11:24:28;;;;;;;5.10;2.80;;;;;;;19.66;44.61;102162.94;4993872;28;20037;-73
2022/11/13 11:27:03;;;;;;;4.88;2.55;;;;;;;19.63;44.60;102163.13;4993764;28;20110;-72
2022/11/13 11:29:36;;;;;;;5.13;2.58;;;;;;;19.60;44.77;102160.69;4992414;28;20037;-77